createdAt,value
2022-07-26T00:00:14.077Z,3.90
2022-07-26T00:02:48.039Z,7.22
2022-07-26T00:05:16.159Z,5.57
2022-07-26T00:07:42.997Z,7.00
2022-07-26T00:10:10.823Z,4.75
2022-07-26T00:12:37.674Z,2.75
2022-07-26T00:15:06.996Z,4.07
2022-07-26T00:17:33.705Z,9.82
2022-07-26T00:20:00.321Z,6.70
2022-07-26T00:22:35.922Z,6.95
2022-07-26T00:25:08.346Z,5.70
2022-07-26T00:27:38.910Z,9.05
2022-07-26T00:30:10.030Z,4.28
2022-07-26T00:32:37.554Z,8.20
2022-07-26T00:35:05.307Z,5.78
2022-07-26T00:37:32.311Z,6.30
2022-07-26T00:39:59.527Z,4.25
2022-07-26T00:42:26.191Z,8.65
2022-07-26T00:44:52.797Z,4.82
2022-07-26T00:47:19.443Z,5.10
2022-07-26T00:49:46.097Z,7.70
2022-07-26T00:52:13.246Z,6.65
2022-07-26T00:54:43.892Z,5.25
2022-07-26T00:57:10.559Z,6.25
2022-07-26T00:59:37.649Z,4.97
2022-07-26T01:02:06.577Z,11.10
2022-07-26T01:04:33.437Z,9.52
2022-07-26T01:07:00.942Z,8.18
2022-07-26T01:09:27.974Z,7.68
2022-07-26T01:11:54.560Z,7.72
2022-07-26T01:14:23.151Z,10.95
2022-07-26T01:16:50.802Z,7.10
2022-07-26T01:19:18.026Z,7.50
2022-07-26T01:21:44.693Z,7.80
2022-07-26T01:24:12.218Z,5.50
2022-07-26T01:26:38.821Z,6.00
2022-07-26T01:29:06.206Z,8.43
2022-07-26T01:31:33.066Z,6.35
2022-07-26T01:33:59.858Z,12.18
2022-07-26T01:36:26.709Z,10.55
2022-07-26T01:38:53.513Z,7.35
2022-07-26T01:41:21.426Z,11.07
2022-07-26T01:44:06.503Z,6.80
2022-07-26T01:46:34.334Z,10.23
2022-07-26T01:49:01.839Z,6.50
2022-07-26T01:51:28.876Z,8.88
2022-07-26T01:53:55.580Z,5.68
2022-07-26T01:56:22.148Z,6.47
2022-07-26T01:58:49.022Z,8.02
2022-07-26T02:01:15.677Z,7.05
2022-07-26T02:03:42.343Z,9.77
2022-07-26T02:06:09.180Z,7.30
2022-07-26T02:08:41.195Z,6.25
2022-07-26T02:11:07.797Z,11.23
2022-07-26T02:13:39.872Z,6.82
2022-07-26T02:16:09.535Z,8.88
2022-07-26T02:18:46.184Z,8.35
2022-07-26T02:21:12.780Z,3.33
2022-07-26T02:23:41.523Z,8.30
2022-07-26T02:26:08.479Z,6.53
2022-07-26T02:28:35.050Z,6.05
2022-07-26T02:31:01.758Z,6.22
2022-07-26T02:33:28.748Z,8.15
2022-07-26T02:35:55.559Z,3.92
2022-07-26T02:38:22.303Z,9.88
2022-07-26T02:40:52.522Z,9.60
2022-07-26T02:43:19.581Z,9.90
2022-07-26T02:46:01.867Z,8.38
2022-07-26T02:48:31.644Z,5.63
2022-07-26T02:50:58.476Z,8.70
2022-07-26T02:53:25.073Z,9.63
2022-07-26T02:55:51.790Z,5.35
2022-07-26T02:58:21.365Z,5.30
2022-07-26T03:00:48.054Z,6.30
2022-07-26T03:03:14.675Z,10.10
2022-07-26T03:05:41.348Z,5.88
2022-07-26T03:08:08.242Z,7.55
2022-07-26T03:10:35.267Z,7.28
2022-07-26T03:13:02.160Z,8.60
2022-07-26T03:15:29.159Z,5.00
2022-07-26T03:17:55.836Z,11.82
2022-07-26T03:20:22.787Z,8.02
2022-07-26T03:22:49.378Z,8.15
2022-07-26T03:25:16.029Z,5.90
2022-07-26T03:27:42.660Z,9.02
2022-07-26T03:30:10.108Z,11.07
2022-07-26T03:32:36.691Z,7.43
2022-07-26T03:35:03.702Z,7.63
2022-07-26T03:37:45.772Z,9.90
2022-07-26T03:40:15.370Z,7.07
2022-07-26T03:42:42.167Z,7.75
2022-07-26T03:45:09.290Z,12.85
2022-07-26T03:47:37.250Z,5.85
2022-07-26T03:50:05.420Z,5.72
2022-07-26T03:52:33.219Z,6.85
2022-07-26T03:54:59.797Z,7.22
2022-07-26T03:57:28.349Z,9.93
2022-07-26T03:59:55.916Z,13.73
2022-07-26T04:02:22.641Z,7.10
2022-07-26T04:04:49.253Z,8.80
2022-07-26T04:07:16.074Z,4.32
2022-07-26T04:09:43.036Z,8.35
2022-07-26T04:12:09.688Z,8.95
2022-07-26T04:14:36.297Z,8.95
2022-07-26T04:17:03.227Z,7.85
2022-07-26T04:19:29.900Z,7.38
2022-07-26T04:21:56.425Z,8.35
2022-07-26T04:24:25.628Z,6.45
2022-07-26T04:26:52.590Z,7.90
2022-07-26T04:29:19.201Z,6.15
2022-07-26T04:31:45.773Z,5.50
2022-07-26T04:34:12.377Z,6.70
2022-07-26T04:36:39.080Z,7.13
2022-07-26T04:39:05.785Z,9.57
2022-07-26T04:41:32.348Z,8.82
2022-07-26T04:43:59.032Z,6.43
2022-07-26T04:46:25.891Z,10.82
2022-07-26T04:48:52.597Z,7.00
2022-07-26T04:51:19.283Z,7.75
2022-07-26T04:53:45.838Z,8.38
2022-07-26T04:56:12.449Z,7.57
2022-07-26T04:58:41.067Z,6.88
2022-07-26T05:01:10.756Z,6.88
2022-07-26T05:03:37.965Z,6.60
2022-07-26T05:06:04.840Z,7.30
2022-07-26T05:08:31.518Z,9.02
2022-07-26T05:10:58.140Z,8.90
2022-07-26T05:13:29.738Z,4.53
2022-07-26T05:15:58.060Z,9.23
2022-07-26T05:18:25.352Z,8.52
2022-07-26T05:20:52.659Z,6.50
2022-07-26T05:23:20.594Z,10.85
2022-07-26T05:25:47.673Z,6.85
2022-07-26T05:28:14.759Z,3.88
2022-07-26T05:30:41.572Z,5.20
2022-07-26T05:33:09.938Z,8.25
2022-07-26T05:35:38.828Z,6.10
2022-07-26T05:38:05.484Z,4.88
2022-07-26T05:40:32.235Z,8.70
2022-07-26T05:42:58.898Z,5.03
2022-07-26T05:45:25.480Z,6.40
2022-07-26T05:47:53.121Z,4.38
2022-07-26T05:50:20.298Z,3.83
2022-07-26T05:52:47.006Z,5.68
2022-07-26T05:55:13.656Z,4.72
2022-07-26T05:57:42.080Z,2.47
2022-07-26T06:00:11.837Z,2.63
2022-07-26T06:02:38.722Z,2.92
2022-07-26T06:05:05.563Z,4.35
2022-07-26T06:07:32.505Z,4.75
2022-07-26T06:09:59.189Z,3.45
2022-07-26T06:12:25.967Z,4.18
2022-07-26T06:14:52.527Z,2.58
2022-07-26T06:17:19.303Z,4.43
2022-07-26T06:19:47.912Z,4.55
2022-07-26T06:22:15.314Z,4.70
2022-07-26T06:24:41.931Z,4.82
2022-07-26T06:27:08.730Z,3.33
2022-07-26T06:29:35.390Z,3.20
2022-07-26T06:32:02.324Z,5.63
2022-07-26T06:34:29.404Z,1.88
2022-07-26T06:36:56.132Z,2.78
2022-07-26T06:39:22.721Z,1.52
2022-07-26T06:41:49.343Z,7.78
2022-07-26T06:44:15.896Z,6.15
2022-07-26T06:46:42.473Z,3.20
2022-07-26T06:49:09.098Z,2.70
2022-07-26T06:51:35.689Z,3.90
2022-07-26T06:54:02.303Z,2.90
2022-07-26T06:56:28.893Z,3.05
2022-07-26T06:58:56.450Z,2.58
2022-07-26T07:01:58.459Z,3.70
2022-07-26T07:04:10.449Z,2.55
2022-07-26T07:06:37.363Z,3.03
2022-07-26T07:09:04.814Z,1.80
2022-07-26T07:11:34.396Z,2.03
2022-07-26T07:14:03.181Z,1.80
2022-07-26T07:16:29.897Z,1.88
2022-07-26T07:18:56.542Z,3.92
2022-07-26T07:21:23.080Z,6.68
2022-07-26T07:23:49.695Z,1.83
2022-07-26T07:26:16.559Z,2.00
2022-07-26T07:28:43.231Z,1.65
2022-07-26T07:31:10.829Z,2.05
2022-07-26T07:33:52.882Z,1.90
2022-07-26T07:36:21.797Z,3.38
2022-07-26T07:38:49.386Z,3.17
2022-07-26T07:41:16.118Z,2.15
2022-07-26T07:43:42.670Z,4.53
2022-07-26T07:46:09.284Z,4.15
2022-07-26T07:48:41.086Z,1.50
2022-07-26T07:51:11.903Z,2.85
2022-07-26T07:53:38.673Z,2.22
2022-07-26T07:56:05.492Z,1.83
2022-07-26T07:58:32.572Z,2.08
2022-07-26T08:00:59.218Z,2.38
2022-07-26T08:03:26.046Z,3.58
2022-07-26T08:06:07.408Z,2.13
2022-07-26T08:08:34.500Z,1.77
2022-07-26T08:11:01.115Z,4.82
2022-07-26T08:13:27.952Z,2.72
2022-07-26T08:15:55.824Z,1.95
2022-07-26T08:18:23.716Z,0.85
2022-07-26T08:20:52.387Z,2.40
2022-07-26T08:23:20.577Z,2.88
2022-07-26T08:25:56.329Z,2.28
2022-07-26T08:28:46.229Z,3.22
2022-07-26T08:31:11.541Z,5.22
2022-07-26T08:33:40.530Z,2.55
2022-07-26T08:36:08.846Z,1.55
2022-07-26T08:38:38.210Z,3.22
2022-07-26T08:41:04.869Z,4.13
2022-07-26T08:43:31.424Z,4.20
2022-07-26T08:46:11.633Z,0.60
2022-07-26T08:48:39.439Z,1.48
2022-07-26T08:51:11.304Z,0.77
2022-07-26T08:53:39.662Z,3.03
2022-07-26T08:56:07.607Z,8.40
2022-07-26T08:58:37.546Z,3.55
2022-07-26T09:01:09.509Z,1.45
2022-07-26T09:03:38.073Z,2.33
2022-07-26T09:06:16.042Z,2.72
2022-07-26T09:08:43.864Z,1.58
2022-07-26T09:11:32.109Z,1.75
2022-07-26T09:14:01.579Z,1.45
2022-07-26T09:16:29.676Z,1.80
2022-07-26T09:19:22.753Z,4.05
2022-07-26T09:21:50.669Z,1.92
2022-07-26T09:24:43.786Z,3.13
2022-07-26T09:27:13.024Z,2.28
2022-07-26T09:30:06.668Z,1.85
2022-07-26T09:32:33.414Z,4.03
2022-07-26T09:35:37.033Z,3.75
2022-07-26T09:37:58.722Z,3.25
2022-07-26T09:40:34.549Z,1.63
2022-07-26T09:43:03.173Z,1.92
2022-07-26T09:45:32.008Z,2.53
2022-07-26T09:47:58.822Z,1.98
2022-07-26T09:50:30.640Z,1.92
2022-07-26T09:53:01.221Z,1.10
2022-07-26T09:55:40.876Z,1.55
2022-07-26T09:58:15.692Z,1.88
2022-07-26T10:00:45.652Z,0.70
2022-07-26T10:03:12.581Z,1.98
2022-07-26T10:05:40.294Z,0.82
2022-07-26T10:08:07.940Z,1.67
2022-07-26T10:10:40.353Z,3.30
2022-07-26T10:13:08.617Z,1.38
2022-07-26T10:15:44.367Z,1.92
2022-07-26T10:18:39.244Z,3.60
2022-07-26T10:21:27.577Z,2.15
2022-07-26T10:23:58.871Z,3.22
2022-07-26T10:26:31.168Z,0.98
2022-07-26T10:29:26.048Z,4.20
2022-07-26T10:31:55.867Z,1.60
2022-07-26T10:34:39.383Z,1.20
2022-07-26T10:37:22.081Z,1.20
2022-07-26T10:39:48.681Z,1.42
2022-07-26T10:42:15.361Z,0.73
2022-07-26T10:44:45.269Z,2.55
2022-07-26T10:47:18.536Z,1.92
2022-07-26T10:49:56.822Z,1.80
2022-07-26T10:52:32.916Z,0.55
2022-07-26T10:54:59.505Z,0.65
2022-07-26T10:57:32.004Z,1.15
2022-07-26T11:00:00.095Z,3.20
2022-07-26T11:02:32.218Z,1.60
2022-07-26T11:05:14.485Z,2.40
2022-07-26T11:08:10.789Z,1.67
2022-07-26T11:10:46.054Z,1.75
2022-07-26T11:13:14.137Z,2.40
2022-07-26T11:15:43.977Z,0.90
2022-07-26T11:18:38.355Z,4.75
2022-07-26T11:21:15.722Z,3.20
2022-07-26T11:23:44.308Z,2.90
2022-07-26T11:26:19.401Z,1.88
2022-07-26T11:28:49.375Z,1.63
2022-07-26T11:31:17.353Z,2.00
2022-07-26T11:33:51.589Z,6.43
2022-07-26T11:36:31.574Z,7.38
2022-07-26T11:38:58.169Z,5.13
2022-07-26T11:41:34.621Z,3.08
2022-07-26T11:44:04.509Z,5.10
2022-07-26T11:46:41.038Z,4.70
2022-07-26T11:49:25.074Z,4.45
2022-07-26T11:51:59.610Z,1.75
2022-07-26T11:54:29.151Z,3.00
2022-07-26T11:57:05.054Z,3.20
2022-07-26T11:59:33.969Z,2.47
2022-07-26T12:02:02.261Z,2.72
2022-07-26T12:04:33.678Z,1.67
2022-07-26T12:07:03.317Z,3.20
2022-07-26T12:09:38.454Z,2.08
2022-07-26T12:12:08.327Z,2.78
2022-07-26T12:14:37.456Z,2.72
2022-07-26T12:17:17.764Z,4.68
2022-07-26T12:19:45.477Z,2.80
2022-07-26T12:22:17.356Z,1.98
2022-07-26T12:24:53.242Z,2.38
2022-07-26T12:27:30.393Z,2.40
2022-07-26T12:30:15.813Z,3.13
2022-07-26T12:32:44.712Z,3.15
2022-07-26T12:35:11.290Z,7.22
2022-07-26T12:37:59.348Z,3.17
2022-07-26T12:40:28.484Z,3.85
2022-07-26T12:43:01.125Z,3.70
2022-07-26T12:45:32.490Z,3.15
2022-07-26T12:48:01.263Z,2.97
2022-07-26T12:50:30.172Z,3.85
2022-07-26T12:53:02.918Z,2.80
2022-07-26T12:55:29.587Z,2.20
2022-07-26T12:57:57.185Z,1.05
2022-07-26T13:00:23.976Z,1.25
2022-07-26T13:02:51.289Z,1.02
2022-07-26T13:05:18.012Z,7.22
2022-07-26T13:07:44.673Z,9.35
2022-07-26T13:12:59.074Z,3.05
2022-07-26T13:15:37.404Z,4.15
2022-07-26T13:18:06.550Z,3.00
2022-07-26T13:20:36.020Z,6.15
2022-07-26T13:23:03.256Z,2.70
2022-07-26T13:25:34.042Z,5.22
2022-07-26T13:28:06.335Z,3.33
2022-07-26T13:30:32.946Z,7.60
2022-07-26T13:32:59.604Z,3.00
2022-07-26T13:35:26.152Z,2.20
2022-07-26T13:37:52.747Z,2.85
2022-07-26T13:40:19.334Z,6.20
2022-07-26T13:42:45.888Z,2.90
2022-07-26T13:45:12.511Z,5.05
2022-07-26T13:47:39.135Z,3.65
2022-07-26T13:50:06.595Z,3.35
2022-07-26T13:52:34.526Z,4.25
2022-07-26T13:55:01.277Z,3.58
2022-07-26T13:57:39.153Z,6.40
2022-07-26T14:00:14.741Z,11.65
2022-07-26T14:02:41.318Z,4.75
2022-07-26T14:05:08.919Z,3.25
2022-07-26T14:07:35.732Z,4.60
2022-07-26T14:10:02.270Z,4.20
2022-07-26T14:12:28.972Z,4.45
2022-07-26T14:14:55.502Z,4.28
2022-07-26T14:17:22.209Z,4.38
2022-07-26T14:19:48.777Z,3.20
2022-07-26T14:22:15.412Z,4.18
2022-07-26T14:24:41.984Z,3.20
2022-07-26T14:27:08.611Z,5.18
2022-07-26T14:29:35.211Z,3.50
2022-07-26T14:32:03.004Z,5.43
2022-07-26T14:34:29.624Z,3.22
2022-07-26T14:36:56.204Z,10.02
2022-07-26T14:39:22.783Z,8.18
2022-07-26T14:41:49.451Z,5.72
2022-07-26T14:44:16.055Z,4.60
2022-07-26T14:46:43.899Z,3.60
2022-07-26T14:49:10.800Z,3.13
2022-07-26T14:51:37.915Z,5.38
2022-07-26T14:54:05.237Z,4.45
2022-07-26T14:56:31.870Z,2.10
2022-07-26T14:58:58.451Z,3.45
2022-07-26T15:01:26.324Z,3.58
2022-07-26T15:03:52.917Z,4.00
2022-07-26T15:06:19.541Z,3.05
2022-07-26T15:08:46.121Z,3.80
2022-07-26T15:11:12.888Z,1.85
2022-07-26T15:13:39.543Z,5.57
2022-07-26T15:16:06.233Z,3.28
2022-07-26T15:18:33.241Z,5.57
2022-07-26T15:21:02.420Z,1.33
2022-07-26T15:23:29.078Z,5.05
2022-07-26T15:25:56.664Z,3.97
2022-07-26T15:28:23.369Z,1.38
2022-07-26T15:30:50.576Z,4.38
2022-07-26T15:33:18.233Z,5.50
2022-07-26T15:35:44.843Z,4.32
2022-07-26T15:38:11.675Z,2.13
2022-07-26T15:40:39.276Z,5.80
2022-07-26T15:43:05.918Z,4.63
2022-07-26T15:45:33.791Z,3.05
2022-07-26T15:48:14.591Z,3.67
2022-07-26T15:50:44.365Z,4.75
2022-07-26T15:53:14.767Z,2.10
2022-07-26T15:55:41.331Z,2.78
2022-07-26T15:58:07.940Z,3.58
2022-07-26T16:00:34.511Z,4.80
2022-07-26T16:03:01.408Z,3.15
2022-07-26T16:05:28.119Z,3.45
2022-07-26T16:07:54.706Z,4.25
2022-07-26T16:10:21.378Z,3.20
2022-07-26T16:12:48.072Z,5.72
2022-07-26T16:15:15.678Z,5.82
2022-07-26T16:17:42.254Z,3.80
2022-07-26T16:20:09.424Z,3.15
2022-07-26T16:22:39.371Z,3.45
2022-07-26T16:25:07.550Z,1.67
2022-07-26T16:27:34.163Z,2.15
2022-07-26T16:30:00.806Z,5.40
2022-07-26T16:32:27.374Z,5.85
2022-07-26T16:34:53.904Z,11.73
2022-07-26T16:37:20.551Z,2.22
2022-07-26T16:39:47.201Z,3.38
2022-07-26T16:42:13.773Z,4.07
2022-07-26T16:44:40.500Z,1.80
2022-07-26T16:47:07.277Z,2.30
2022-07-26T16:49:33.907Z,5.85
2022-07-26T16:52:00.693Z,3.95
2022-07-26T16:54:27.269Z,5.80
2022-07-26T16:56:54.549Z,4.57
2022-07-26T16:59:21.119Z,2.97
2022-07-26T17:01:47.919Z,4.03
2022-07-26T17:04:14.580Z,3.67
2022-07-26T17:06:41.197Z,3.17
2022-07-26T17:09:15.739Z,3.17
2022-07-26T17:11:42.718Z,1.80
2022-07-26T17:14:09.301Z,3.30
2022-07-26T17:16:36.371Z,4.10
2022-07-26T17:19:03.214Z,2.55
2022-07-26T17:21:29.834Z,6.25
2022-07-26T17:23:56.419Z,3.10
2022-07-26T17:26:23.001Z,4.28
2022-07-26T17:28:49.539Z,2.33
2022-07-26T17:31:16.319Z,2.00
2022-07-26T17:33:42.979Z,2.90
2022-07-26T17:36:39.164Z,1.88
2022-07-26T17:39:05.937Z,4.90
2022-07-26T17:41:34.840Z,2.65
2022-07-26T17:44:04.759Z,2.38
2022-07-26T17:46:32.765Z,2.38
2022-07-26T17:49:00.089Z,2.97
2022-07-26T17:51:26.962Z,3.10
2022-07-26T17:53:53.922Z,2.28
2022-07-26T17:56:20.526Z,2.70
2022-07-26T17:58:47.145Z,6.10
2022-07-26T18:01:13.733Z,2.25
2022-07-26T18:03:40.466Z,4.20
2022-07-26T18:06:07.227Z,1.48
2022-07-26T18:08:33.854Z,2.15
2022-07-26T18:11:02.814Z,3.58
2022-07-26T18:13:29.681Z,5.45
2022-07-26T18:15:56.849Z,1.95
2022-07-26T18:18:23.604Z,3.38
2022-07-26T18:20:50.306Z,1.65
2022-07-26T18:23:16.923Z,2.03
2022-07-26T18:25:43.712Z,3.00
2022-07-26T18:28:10.510Z,2.08
2022-07-26T18:30:37.629Z,1.42
2022-07-26T18:33:04.849Z,2.70
2022-07-26T18:35:32.548Z,1.85
2022-07-26T18:37:59.158Z,1.42
2022-07-26T18:40:26.558Z,4.20
2022-07-26T18:42:54.167Z,1.10
2022-07-26T18:45:20.950Z,2.67
2022-07-26T18:47:47.519Z,1.88
2022-07-26T18:50:16.973Z,4.65
2022-07-26T18:52:44.759Z,1.88
2022-07-26T18:55:12.941Z,1.38
2022-07-26T18:57:43.069Z,0.95
2022-07-26T19:00:12.779Z,1.48
2022-07-26T19:02:39.481Z,3.13
2022-07-26T19:05:06.838Z,3.08
2022-07-26T19:07:34.197Z,1.55
2022-07-26T19:10:00.741Z,2.65
2022-07-26T19:12:28.115Z,4.00
2022-07-26T19:14:55.139Z,2.92
2022-07-26T19:17:22.230Z,2.63
2022-07-26T19:19:50.168Z,3.80
2022-07-26T19:22:16.807Z,2.60
2022-07-26T19:24:43.441Z,3.35
2022-07-26T19:27:10.428Z,2.50
2022-07-26T19:29:38.061Z,1.58
2022-07-26T19:32:05.930Z,1.48
2022-07-26T19:34:32.770Z,2.03
2022-07-26T19:36:59.519Z,2.35
2022-07-26T19:39:26.076Z,0.77
2022-07-26T19:41:53.046Z,3.28
2022-07-26T19:44:19.822Z,1.08
2022-07-26T19:46:47.501Z,1.48
2022-07-26T19:49:16.082Z,5.05
2022-07-26T19:51:43.438Z,2.47
2022-07-26T19:54:10.059Z,2.75
2022-07-26T19:56:36.672Z,1.85
2022-07-26T19:59:03.411Z,4.75
2022-07-26T20:01:30.020Z,3.63
2022-07-26T20:03:56.981Z,4.00
2022-07-26T20:06:23.785Z,3.30
2022-07-26T20:08:50.570Z,1.73
2022-07-26T20:11:19.850Z,2.15
2022-07-26T20:13:47.067Z,1.77
2022-07-26T20:16:13.691Z,1.60
2022-07-26T20:18:40.381Z,4.65
2022-07-26T20:21:06.931Z,2.97
2022-07-26T20:23:33.962Z,1.20
2022-07-26T20:26:01.323Z,5.38
2022-07-26T20:28:27.977Z,3.17
2022-07-26T20:30:55.148Z,2.90
2022-07-26T20:33:22.005Z,3.78
2022-07-26T20:35:54.480Z,6.88
2022-07-26T20:38:21.658Z,3.92
2022-07-26T20:40:48.306Z,1.00
2022-07-26T20:43:14.894Z,2.47
2022-07-26T20:45:41.565Z,7.03
2022-07-26T20:48:08.558Z,2.53
2022-07-26T20:50:36.518Z,2.10
2022-07-26T20:53:03.948Z,1.15
2022-07-26T20:55:30.896Z,2.88
2022-07-26T20:57:57.576Z,3.38
2022-07-26T21:00:26.095Z,5.95
2022-07-26T21:02:57.578Z,0.77
2022-07-26T21:05:24.996Z,2.25
2022-07-26T21:07:58.394Z,2.45
2022-07-26T21:10:26.350Z,3.85
2022-07-26T21:12:53.125Z,0.85
2022-07-26T21:15:32.194Z,2.55
2022-07-26T21:18:01.211Z,1.40
2022-07-26T21:20:27.817Z,3.08
2022-07-26T21:23:03.687Z,3.55
2022-07-26T21:25:39.832Z,0.90
2022-07-26T21:28:06.437Z,4.00
2022-07-26T21:30:33.249Z,4.80
2022-07-26T21:32:59.817Z,3.70
2022-07-26T21:35:28.376Z,2.58
2022-07-26T21:37:54.986Z,1.25
2022-07-26T21:40:21.777Z,4.63
2022-07-26T21:42:48.368Z,2.90
2022-07-26T21:45:14.986Z,7.20
2022-07-26T21:47:41.558Z,2.58
2022-07-26T21:50:09.193Z,3.45
2022-07-26T21:52:35.832Z,2.25
2022-07-26T21:55:02.493Z,2.17
2022-07-26T21:57:29.214Z,3.92
2022-07-26T21:59:55.781Z,1.30
2022-07-26T22:02:22.388Z,2.22
2022-07-26T22:04:49.083Z,3.85
2022-07-26T22:07:15.583Z,6.30
2022-07-26T22:09:42.217Z,1.65
2022-07-26T22:12:10.362Z,3.40
2022-07-26T22:14:36.981Z,2.17
2022-07-26T22:17:03.907Z,2.88
2022-07-26T22:19:30.522Z,2.25
2022-07-26T22:21:57.067Z,2.40
2022-07-26T22:24:23.693Z,3.60
2022-07-26T22:26:50.354Z,1.23
2022-07-26T22:29:16.920Z,4.47
2022-07-26T22:31:43.706Z,3.65
2022-07-26T22:34:10.307Z,1.38
2022-07-26T22:36:39.908Z,2.40
2022-07-26T22:39:11.911Z,1.75
2022-07-26T22:42:05.111Z,2.63
2022-07-26T22:44:25.245Z,2.17
2022-07-26T22:46:51.848Z,1.33
2022-07-26T22:49:18.462Z,1.90
2022-07-26T22:51:45.088Z,2.25
2022-07-26T22:54:11.690Z,5.20
2022-07-26T22:56:38.327Z,2.05
2022-07-26T22:59:04.976Z,2.78
2022-07-26T23:01:31.570Z,3.58
2022-07-26T23:03:58.513Z,1.55
2022-07-26T23:06:32.025Z,3.05
2022-07-26T23:08:59.085Z,3.08
2022-07-26T23:11:25.689Z,0.95
2022-07-26T23:13:58.831Z,2.67
2022-07-26T23:16:26.385Z,3.72
2022-07-26T23:18:53.068Z,0.73
2022-07-26T23:21:19.613Z,2.10
2022-07-26T23:23:46.175Z,2.00
2022-07-26T23:26:12.737Z,6.90
2022-07-26T23:28:39.428Z,3.00
2022-07-26T23:31:10.921Z,1.70
2022-07-26T23:33:53.282Z,0.70
2022-07-26T23:36:25.788Z,1.13
2022-07-26T23:38:53.241Z,1.63
2022-07-26T23:41:20.264Z,4.60
2022-07-26T23:43:47.030Z,3.70
2022-07-26T23:46:13.674Z,1.42
2022-07-26T23:48:40.354Z,1.70
2022-07-26T23:51:06.955Z,1.95
2022-07-26T23:53:33.537Z,3.38
2022-07-26T23:56:00.176Z,1.77
2022-07-26T23:58:26.705Z,0.98
